createdAt,value
2022-12-15T00:07:56.147Z,89574.46
2022-12-15T00:16:37.777Z,89574.45
2022-12-15T00:25:19.427Z,89573.29
2022-12-15T00:34:00.848Z,89567.10
2022-12-15T00:42:23.717Z,89562.39
2022-12-15T00:50:52.595Z,89573.80
2022-12-15T00:59:35.934Z,89577.42
2022-12-15T01:08:21.030Z,89608.86
2022-12-15T01:17:02.768Z,89619.71
2022-12-15T01:25:27.752Z,89620.73
2022-12-15T01:33:53.890Z,89626.73
2022-12-15T01:42:16.893Z,89649.42
2022-12-15T01:50:44.126Z,89658.79
2022-12-15T01:59:12.283Z,89659.76
2022-12-15T02:07:35.183Z,89655.82
2022-12-15T02:16:38.679Z,89636.15
2022-12-15T02:25:07.746Z,89618.33
2022-12-15T02:33:33.297Z,89591.30
2022-12-15T02:41:56.440Z,89567.70
2022-12-15T02:50:39.997Z,89561.05
2022-12-15T02:59:35.446Z,89596.52
2022-12-15T03:07:58.897Z,89653.77
2022-12-15T03:16:22.446Z,89666.68
2022-12-15T03:24:45.413Z,89660.27
2022-12-15T03:33:08.779Z,89645.15
2022-12-15T03:41:31.675Z,89649.20
2022-12-15T03:49:54.548Z,89657.71
2022-12-15T03:58:17.604Z,89654.84
2022-12-15T04:06:40.483Z,89646.08
2022-12-15T04:15:03.614Z,89639.08
2022-12-15T04:23:26.696Z,89660.02
2022-12-15T04:32:08.589Z,89704.02
2022-12-15T04:40:50.179Z,89730.70
2022-12-15T04:49:31.774Z,89718.41
2022-12-15T04:58:13.333Z,89695.20
2022-12-15T05:06:55.259Z,89717.17
2022-12-15T05:15:38.595Z,89759.66
2022-12-15T05:24:20.315Z,89778.31
2022-12-15T05:32:43.214Z,89752.73
2022-12-15T05:41:06.183Z,89712.94
2022-12-15T05:49:29.169Z,89708.92
2022-12-15T05:57:53.456Z,89726.55
2022-12-15T06:06:16.603Z,89727.98
2022-12-15T06:14:39.549Z,89692.23
2022-12-15T06:23:02.367Z,89684.34
2022-12-15T06:31:26.994Z,89702.94
2022-12-15T06:39:50.179Z,89707.13
2022-12-15T06:48:13.102Z,89698.94
2022-12-15T06:56:36.287Z,89719.95
2022-12-15T07:04:59.468Z,89766.57
2022-12-15T07:13:22.579Z,89782.35
2022-12-15T07:21:45.558Z,89789.74
2022-12-15T07:30:09.088Z,89794.46
2022-12-15T07:38:32.327Z,89817.37
2022-12-15T07:46:55.820Z,89861.63
2022-12-15T07:55:37.234Z,89886.44
2022-12-15T08:04:02.735Z,89900.55
2022-12-15T08:12:27.800Z,89930.50
2022-12-15T08:20:51.341Z,89983.45
2022-12-15T08:38:02.278Z,90037.55
2022-12-15T08:46:33.906Z,90067.60
2022-12-15T08:54:56.946Z,90104.84
2022-12-15T09:03:19.894Z,90151.27
2022-12-15T09:11:42.890Z,90195.15
2022-12-15T09:20:06.768Z,90249.18
2022-12-15T09:28:32.225Z,90288.98
2022-12-15T09:36:55.379Z,90271.34
2022-12-15T09:45:22.461Z,90263.41
2022-12-15T09:53:55.838Z,90285.59
2022-12-15T10:02:28.817Z,90297.77
2022-12-15T10:10:51.854Z,90305.07
2022-12-15T10:19:24.347Z,90329.55
2022-12-15T10:28:07.995Z,90374.61
2022-12-15T10:36:30.890Z,90401.02
2022-12-15T10:44:56.608Z,90373.89
2022-12-15T10:53:50.496Z,90375.86
2022-12-15T11:02:24.569Z,90364.80
2022-12-15T11:11:17.599Z,90336.30
2022-12-15T11:19:54.019Z,90349.73
2022-12-15T11:28:28.724Z,90376.73
2022-12-15T11:37:04.115Z,90359.02
2022-12-15T11:46:05.779Z,90331.50
2022-12-15T11:54:39.847Z,90310.00
2022-12-15T12:03:25.435Z,90328.01
2022-12-15T12:12:05.852Z,90348.42
2022-12-15T12:20:42.204Z,90359.70
2022-12-15T12:29:13.329Z,90373.07
2022-12-15T12:46:44.602Z,90418.73
2022-12-15T12:55:26.447Z,90407.13
2022-12-15T13:04:34.113Z,90357.28
2022-12-15T13:13:01.432Z,90340.65
2022-12-15T13:21:44.234Z,90349.45
2022-12-15T13:30:07.233Z,90343.44
2022-12-15T13:38:56.620Z,90308.41
2022-12-15T13:47:28.847Z,90276.89
2022-12-15T13:56:06.968Z,90265.05
2022-12-15T14:04:29.872Z,90247.37
2022-12-15T14:12:57.346Z,90202.55
2022-12-15T14:21:27.071Z,90189.19
2022-12-15T14:29:50.778Z,90196.02
2022-12-15T14:38:22.326Z,90165.95
2022-12-15T14:46:49.712Z,90151.67
2022-12-15T14:55:23.475Z,90147.92
2022-12-15T15:03:07.202Z,90393.88
2022-12-15T15:03:57.068Z,90146.59
2022-12-15T15:12:23.032Z,90114.53
2022-12-15T15:20:58.066Z,90121.06
2022-12-15T15:29:38.684Z,90141.44
2022-12-15T15:38:07.500Z,90149.61
2022-12-15T15:46:34.767Z,90144.01
2022-12-15T15:54:59.625Z,90120.96
2022-12-15T16:03:22.720Z,90118.48
2022-12-15T16:11:47.128Z,90139.45
2022-12-15T16:20:13.128Z,90145.93
2022-12-15T16:28:37.044Z,90118.28
2022-12-15T16:37:00.346Z,90086.02
2022-12-15T16:45:25.680Z,90080.59
2022-12-15T16:53:48.667Z,90095.52
2022-12-15T17:02:27.786Z,90080.63
2022-12-15T17:10:51.679Z,89988.89
2022-12-15T17:19:20.707Z,89877.83
2022-12-15T17:27:45.907Z,89771.54
2022-12-15T17:36:19.222Z,89713.06
2022-12-15T17:44:42.206Z,89685.09
2022-12-15T17:53:06.590Z,89620.16
2022-12-15T18:01:29.567Z,89492.63
2022-12-15T18:09:53.231Z,89353.95
2022-12-15T18:18:18.135Z,89185.05
2022-12-15T18:26:41.029Z,89041.30
2022-12-15T18:35:15.168Z,88944.71
2022-12-15T18:43:38.259Z,88849.54
2022-12-15T18:52:01.139Z,88696.17
2022-12-15T19:00:30.293Z,88616.64
2022-12-15T19:08:53.502Z,88638.73
2022-12-15T19:17:40.116Z,88664.46
2022-12-15T19:26:03.411Z,88682.73
2022-12-15T19:34:28.372Z,88730.88
2022-12-15T19:42:55.535Z,88722.42
2022-12-15T19:51:23.145Z,88708.42
2022-12-15T19:59:46.131Z,88698.35
2022-12-15T20:08:18.127Z,88633.23
2022-12-15T20:16:43.351Z,88558.27
2022-12-15T20:25:06.564Z,88491.07
2022-12-15T20:33:29.739Z,88430.30
2022-12-15T20:41:54.719Z,88419.00
2022-12-15T20:50:21.767Z,88467.08
2022-12-15T20:58:46.130Z,88527.55
2022-12-15T21:07:12.477Z,88571.38
2022-12-15T21:15:35.286Z,88576.21
2022-12-15T21:23:59.996Z,88617.91
2022-12-15T21:32:22.867Z,88668.48
2022-12-15T21:40:45.752Z,88716.57
2022-12-15T21:49:18.617Z,88761.77
2022-12-15T21:57:41.577Z,88805.87
2022-12-15T22:06:04.677Z,88838.62
2022-12-15T22:14:33.973Z,88836.70
2022-12-15T22:22:56.859Z,88804.70
2022-12-15T22:31:19.988Z,88791.45
2022-12-15T22:39:43.119Z,88802.60
2022-12-15T22:48:06.086Z,88823.40
2022-12-15T22:56:37.394Z,88832.76
2022-12-15T23:05:00.735Z,88824.92
2022-12-15T23:13:23.727Z,88826.04
2022-12-15T23:21:46.789Z,88854.31
2022-12-15T23:30:10.066Z,88856.96
2022-12-15T23:38:33.084Z,88876.62
2022-12-15T23:47:01.486Z,88912.40
2022-12-15T23:55:24.491Z,88947.36
